Time;durP1;ratioP1;P1;durP2;ratioP2;P2;SDS_P1;SDS_P2;PMS_P1;PMS_P2;Temp;Humidity;BMP_temperature;BMP_pressure;BME280_temperature;BME280_humidity;BME280_pressure;Samples;Min_cycle;Max_cycle;Signal;HPM_P1;HPM_P2
2022/10/23 00:00:04;;;;;;;2.78;1.67;;;20.50;99.90;;;;;;4973792;28;20225;-76
2022/10/23 00:02:35;;;;;;;3.63;1.40;;;20.50;99.90;;;;;;4971508;28;20235;-72
2022/10/23 00:05:06;;;;;;;4.05;1.52;;;20.40;99.90;;;;;;4974022;28;20671;-72
2022/10/23 00:07:37;;;;;;;2.53;1.92;;;20.40;99.90;;;;;;4971736;28;20188;-73
2022/10/23 00:10:08;;;;;;;6.32;2.00;;;20.30;99.90;;;;;;4973610;28;20212;-75
2022/10/23 00:12:39;;;;;;;2.95;1.60;;;20.20;99.90;;;;;;4971468;28;20212;-77
2022/10/23 00:15:12;;;;;;;4.75;1.80;;;20.10;99.90;;;;;;4973130;28;20211;-75
2022/10/23 00:17:43;;;;;;;6.30;2.08;;;20.10;99.90;;;;;;4973624;28;20195;-76
2022/10/23 00:20:15;;;;;;;3.22;1.50;;;20.00;99.90;;;;;;4973625;28;20193;-77
2022/10/23 00:22:46;;;;;;;1.55;1.00;;;20.00;99.90;;;;;;4972574;28;20666;-76
2022/10/23 00:25:17;;;;;;;1.52;0.90;;;20.00;99.90;;;;;;4973331;28;20564;-75
2022/10/23 00:27:48;;;;;;;1.65;0.80;;;19.80;99.90;;;;;;4972885;28;20199;-74
2022/10/23 00:30:20;;;;;;;1.38;0.80;;;19.80;99.90;;;;;;4973147;28;20633;-76
2022/10/23 00:32:51;;;;;;;1.55;0.75;;;19.70;99.90;;;;;;4972511;28;20224;-76
2022/10/23 00:35:22;;;;;;;0.57;0.57;;;19.60;99.90;;;;;;4973274;28;20188;-78
2022/10/23 00:37:53;;;;;;;1.42;1.00;;;19.50;99.90;;;;;;4973007;28;20242;-77
2022/10/23 00:40:23;;;;;;;1.38;0.90;;;19.50;99.90;;;;;;4973055;28;20184;-75
2022/10/23 00:42:54;;;;;;;1.63;0.80;;;19.60;99.90;;;;;;4973034;28;20196;-77
2022/10/23 00:45:30;;;;;;;1.25;0.82;;;19.60;99.90;;;;;;4972869;28;20197;-75
2022/10/23 00:48:01;;;;;;;1.35;0.90;;;19.70;99.90;;;;;;4972754;28;20242;-76
2022/10/23 00:50:34;;;;;;;0.98;0.70;;;19.90;99.90;;;;;;4972973;28;20188;-75
2022/10/23 00:53:07;;;;;;;0.88;0.75;;;20.00;99.90;;;;;;4972184;28;20209;-77
2022/10/23 00:55:40;;;;;;;1.45;0.80;;;20.10;99.90;;;;;;4970738;28;20192;-78
2022/10/23 00:58:12;;;;;;;1.20;0.80;;;20.10;99.90;;;;;;4970155;28;20184;-77
2022/10/23 01:00:51;;;;;;;0.85;0.70;;;20.20;99.90;;;;;;4971628;28;20722;-77
2022/10/23 01:03:24;;;;;;;1.08;0.95;;;20.20;99.90;;;;;;4973146;28;20197;-78
2022/10/23 01:06:01;;;;;;;4.22;1.15;;;20.20;99.90;;;;;;4972951;28;20188;-77
2022/10/23 01:08:36;;;;;;;3.75;1.60;;;20.20;99.90;;;;;;4972567;28;20202;-78
2022/10/23 01:11:12;;;;;;;4.35;2.10;;;20.40;99.90;;;;;;4968910;28;20191;-77
2022/10/23 01:13:49;;;;;;;6.03;2.45;;;20.60;99.90;;;;;;4971272;28;20226;-77
2022/10/23 01:16:28;;;;;;;4.20;2.08;;;20.80;99.90;;;;;;4973133;28;20184;-76
2022/10/23 01:19:06;;;;;;;3.97;1.77;;;21.00;99.90;;;;;;4971843;28;20192;-79
2022/10/23 01:21:49;;;;;;;4.72;1.90;;;21.20;99.90;;;;;;4971608;28;20652;-78
2022/10/23 01:24:43;;;;;;;2.58;1.90;;;21.40;99.90;;;;;;4970836;28;20644;-78
2022/10/23 01:27:27;;;;;;;4.32;1.80;;;21.50;99.90;;;;;;4971405;28;20566;-78
2022/10/23 01:30:09;;;;;;;3.92;2.10;;;21.60;99.90;;;;;;4968194;28;20197;-78
2022/10/23 01:32:46;;;;;;;4.13;1.85;;;21.60;99.90;;;;;;4970269;28;20768;-76
2022/10/23 01:35:22;;;;;;;3.97;1.88;;;21.70;99.90;;;;;;4970460;28;20193;-79
2022/10/23 01:37:57;;;;;;;3.25;1.83;;;21.60;99.90;;;;;;4972379;28;20228;-79
2022/10/23 01:40:34;;;;;;;2.65;1.80;;;21.80;99.90;;;;;;4972790;28;20632;-76
2022/10/23 01:43:11;;;;;;;4.32;2.25;;;22.00;99.90;;;;;;4972702;28;20195;-79
2022/10/23 01:45:44;;;;;;;2.38;1.73;;;22.00;99.90;;;;;;4974645;28;20192;-79
2022/10/23 01:48:18;;;;;;;2.65;2.22;;;22.10;99.90;;;;;;4976681;28;20579;-79
2022/10/23 01:50:50;;;;;;;3.17;2.13;;;22.20;99.90;;;;;;4975687;28;20197;-78
2022/10/23 01:53:22;;;;;;;2.40;1.90;;;22.30;99.90;;;;;;4976092;28;20222;-79
2022/10/23 01:55:55;;;;;;;3.63;1.85;;;22.40;99.90;;;;;;4975960;28;20206;-77
2022/10/23 01:58:30;;;;;;;3.88;2.00;;;22.40;99.90;;;;;;4971223;28;20192;-78
2022/10/23 02:01:07;;;;;;;4.25;1.80;;;22.50;99.90;;;;;;4975052;28;20679;-78
2022/10/23 02:03:40;;;;;;;5.20;1.95;;;22.50;99.90;;;;;;4977824;28;20210;-79
2022/10/23 02:06:10;;;;;;;3.45;1.90;;;22.50;99.90;;;;;;4972443;28;20202;-78
2022/10/23 02:08:41;;;;;;;5.43;1.50;;;22.40;99.90;;;;;;4973717;28;20196;-76
2022/10/23 02:11:15;;;;;;;3.78;2.00;;;22.10;99.90;;;;;;4967988;28;20200;-77
2022/10/23 02:13:54;;;;;;;4.85;1.70;;;22.00;99.90;;;;;;4971807;28;20319;-76
2022/10/23 02:16:33;;;;;;;3.00;1.60;;;21.80;99.90;;;;;;4972495;28;20228;-78
2022/10/23 02:19:12;;;;;;;4.32;1.95;;;21.70;99.90;;;;;;4973436;28;20652;-71
2022/10/23 02:21:53;;;;;;;4.38;1.90;;;21.60;99.90;;;;;;4979473;28;20200;-74
2022/10/23 02:24:29;;;;;;;5.13;1.98;;;21.60;99.90;;;;;;4977536;28;20246;-72
2022/10/23 02:27:04;;;;;;;3.88;2.10;;;21.50;99.90;;;;;;4977547;28;20207;-76
2022/10/23 02:29:40;;;;;;;3.25;1.80;;;21.60;99.90;;;;;;4982476;28;20196;-72
2022/10/23 02:32:12;;;;;;;2.28;1.52;;;21.50;99.90;;;;;;4978034;28;20208;-74
2022/10/23 02:34:43;;;;;;;3.60;1.70;;;21.50;99.90;;;;;;4976037;28;20227;-72
2022/10/23 02:37:14;;;;;;;4.28;1.65;;;21.50;99.90;;;;;;4975637;28;20663;-75
2022/10/23 02:39:45;;;;;;;3.05;1.75;;;21.40;99.90;;;;;;4976310;28;20208;-72
2022/10/23 02:42:21;;;;;;;6.28;1.55;;;21.50;99.90;;;;;;4980304;28;20203;-72
2022/10/23 02:45:02;;;;;;;4.45;1.80;;;21.50;99.90;;;;;;4973776;28;20232;-72
2022/10/23 02:47:48;;;;;;;4.20;1.80;;;21.50;99.90;;;;;;4978338;28;20196;-76
2022/10/23 02:50:27;;;;;;;5.05;1.70;;;21.50;99.90;;;;;;4974261;28;20278;-75
2022/10/23 02:53:06;;;;;;;7.13;1.80;;;21.50;99.90;;;;;;4975054;28;20255;-76
2022/10/23 02:55:46;;;;;;;4.43;1.63;;;21.60;99.90;;;;;;4970851;28;20200;-75
2022/10/23 02:58:25;;;;;;;4.10;1.60;;;21.60;99.90;;;;;;4975328;28;20189;-76
2022/10/23 03:01:04;;;;;;;7.40;1.75;;;21.50;99.90;;;;;;4977827;28;20196;-76
2022/10/23 03:03:37;;;;;;;4.30;1.85;;;21.50;99.90;;;;;;4974707;28;20192;-76
2022/10/23 03:06:09;;;;;;;5.00;2.00;;;21.40;99.90;;;;;;4971715;28;20251;-76
2022/10/23 03:08:54;;;;;;;4.90;2.00;;;21.40;99.90;;;;;;4968830;28;20192;-76
2022/10/23 03:11:25;;;;;;;2.65;1.80;;;21.30;99.90;;;;;;4972270;28;20679;-77
2022/10/23 03:13:55;;;;;;;3.97;2.00;;;21.30;99.90;;;;;;4979005;28;20231;-76
2022/10/23 03:16:28;;;;;;;3.75;2.13;;;21.30;99.90;;;;;;4971959;28;20203;-77
2022/10/23 03:18:59;;;;;;;6.07;2.05;;;21.20;99.90;;;;;;4976575;28;20288;-75
2022/10/23 03:21:30;;;;;;;2.90;1.52;;;21.10;99.90;;;;;;4975595;28;20234;-77
2022/10/23 03:24:01;;;;;;;5.78;2.03;;;21.10;99.90;;;;;;4977565;28;20210;-77
2022/10/23 03:26:31;;;;;;;4.57;1.90;;;21.00;99.90;;;;;;4974371;28;20200;-77
2022/10/23 03:29:02;;;;;;;2.65;1.80;;;21.00;99.90;;;;;;4973399;28;20209;-78
2022/10/23 03:31:35;;;;;;;4.78;2.20;;;21.00;99.90;;;;;;4977705;28;20219;-76
2022/10/23 03:34:09;;;;;;;3.58;1.90;;;21.00;99.90;;;;;;4978540;28;20212;-78
2022/10/23 03:36:40;;;;;;;5.63;1.92;;;21.00;99.90;;;;;;4976060;28;20723;-78
2022/10/23 03:39:11;;;;;;;3.30;1.80;;;20.90;99.90;;;;;;4977365;28;20200;-78
2022/10/23 03:41:42;;;;;;;3.42;1.70;;;20.90;99.90;;;;;;4967071;28;20200;-75
2022/10/23 03:44:12;;;;;;;2.08;1.48;;;20.80;99.90;;;;;;4976043;28;20226;-76
2022/10/23 03:46:45;;;;;;;2.25;1.38;;;20.70;99.90;;;;;;4975565;28;20201;-75
2022/10/23 03:49:16;;;;;;;4.05;1.40;;;20.60;99.90;;;;;;4976211;28;20200;-75
2022/10/23 03:51:50;;;;;;;4.45;1.48;;;20.50;99.90;;;;;;4973799;28;20203;-78
2022/10/23 03:54:24;;;;;;;3.45;1.42;;;20.50;99.90;;;;;;4978555;28;20683;-72
2022/10/23 03:56:55;;;;;;;3.83;1.17;;;20.40;99.90;;;;;;4975270;28;20224;-74
2022/10/23 03:59:26;;;;;;;4.07;0.90;;;20.30;99.90;;;;;;4974778;28;20200;-74
2022/10/23 04:01:58;;;;;;;4.63;1.00;;;20.30;99.90;;;;;;4966478;28;20279;-75
2022/10/23 04:04:29;;;;;;;3.97;0.98;;;20.20;99.90;;;;;;4975281;28;20196;-73
2022/10/23 04:07:00;;;;;;;4.15;1.20;;;20.20;99.90;;;;;;4973915;28;20197;-76
2022/10/23 04:09:31;;;;;;;5.28;1.10;;;20.20;99.90;;;;;;4973668;28;20200;-76
2022/10/23 04:12:02;;;;;;;3.08;0.88;;;20.10;99.90;;;;;;4969680;28;20196;-76
2022/10/23 04:14:33;;;;;;;5.43;1.17;;;20.10;99.90;;;;;;4972565;28;20220;-76
2022/10/23 04:17:05;;;;;;;4.15;1.23;;;20.00;99.90;;;;;;4973653;28;20219;-77
2022/10/23 04:19:36;;;;;;;2.45;1.02;;;20.00;99.90;;;;;;4973987;28;20188;-77
2022/10/23 04:22:07;;;;;;;3.50;1.10;;;20.00;99.90;;;;;;4977945;28;20232;-78
2022/10/23 04:24:37;;;;;;;2.17;0.90;;;19.90;99.90;;;;;;4973774;28;20188;-78
2022/10/23 04:27:08;;;;;;;6.32;0.93;;;19.90;99.90;;;;;;4974314;28;20195;-76
2022/10/23 04:29:39;;;;;;;4.55;1.35;;;19.80;99.90;;;;;;4972877;28;20566;-76
2022/10/23 04:32:12;;;;;;;5.38;1.40;;;19.70;99.90;;;;;;4974450;28;20203;-75
2022/10/23 04:34:43;;;;;;;7.13;1.83;;;19.70;99.90;;;;;;4974576;28;20703;-76
2022/10/23 04:37:13;;;;;;;5.47;1.23;;;19.70;99.90;;;;;;4972095;28;20236;-75
2022/10/23 04:39:44;;;;;;;4.97;1.33;;;19.60;99.90;;;;;;4976855;28;20201;-75
2022/10/23 04:42:15;;;;;;;5.72;1.35;;;19.60;99.90;;;;;;4974082;28;20226;-77
2022/10/23 04:44:46;;;;;;;9.70;1.73;;;19.60;99.90;;;;;;4974125;28;20203;-74
2022/10/23 04:47:18;;;;;;;7.25;1.55;;;19.60;99.90;;;;;;4972967;28;20196;-75
2022/10/23 04:49:49;;;;;;;8.57;1.80;;;19.50;99.90;;;;;;4974058;28;20659;-72
2022/10/23 04:52:20;;;;;;;7.15;2.03;;;19.40;99.90;;;;;;4976154;28;20196;-77
2022/10/23 04:54:51;;;;;;;5.82;1.73;;;19.40;99.90;;;;;;4976760;28;20220;-77
2022/10/23 04:57:21;;;;;;;3.72;1.73;;;19.40;99.90;;;;;;4973574;28;20220;-72
2022/10/23 04:59:52;;;;;;;6.72;2.30;;;19.40;99.90;;;;;;4972777;28;20199;-72
2022/10/23 05:02:26;;;;;;;8.48;2.22;;;19.30;99.90;;;;;;4973814;28;20275;-76
2022/10/23 05:04:57;;;;;;;7.45;1.80;;;19.20;99.90;;;;;;4972792;28;20674;-75
2022/10/23 05:07:27;;;;;;;6.57;2.00;;;19.20;99.90;;;;;;4975077;28;20196;-76
2022/10/23 05:09:58;;;;;;;6.68;1.90;;;19.20;99.90;;;;;;4975226;28;20200;-77
2022/10/23 05:12:29;;;;;;;7.10;2.03;;;19.20;99.90;;;;;;4972691;28;20558;-78
2022/10/23 05:15:00;;;;;;;7.60;2.17;;;19.20;99.90;;;;;;4972566;28;20220;-77
2022/10/23 05:17:36;;;;;;;6.70;2.17;;;19.30;99.90;;;;;;4967817;28;20587;-76
2022/10/23 05:20:11;;;;;;;9.10;2.22;;;19.20;99.90;;;;;;4973703;28;20211;-75
2022/10/23 05:22:43;;;;;;;7.57;2.17;;;19.30;99.90;;;;;;4977827;28;20195;-74
2022/10/23 05:25:16;;;;;;;4.90;2.20;;;19.30;99.90;;;;;;4977602;28;20189;-75
2022/10/23 05:27:46;;;;;;;7.15;2.47;;;19.30;99.90;;;;;;4974000;28;20218;-75
2022/10/23 05:30:17;;;;;;;6.28;2.28;;;19.30;99.90;;;;;;4976420;28;20207;-75
2022/10/23 05:32:51;;;;;;;8.65;2.67;;;19.30;99.90;;;;;;4973879;28;20572;-75
2022/10/23 05:35:25;;;;;;;6.30;2.25;;;19.40;99.90;;;;;;4976520;28;20212;-76
2022/10/23 05:37:58;;;;;;;9.15;2.55;;;19.30;99.90;;;;;;4976680;28;20749;-75
2022/10/23 05:40:29;;;;;;;7.90;2.60;;;19.30;99.90;;;;;;4977847;28;20557;-76
2022/10/23 05:43:00;;;;;;;9.18;2.47;;;19.30;99.90;;;;;;4975810;28;20202;-74
2022/10/23 05:45:32;;;;;;;9.50;3.03;;;19.30;99.90;;;;;;4976775;28;20192;-75
2022/10/23 05:48:05;;;;;;;10.07;2.70;;;19.30;99.90;;;;;;4975647;28;20196;-76
2022/10/23 05:50:38;;;;;;;8.63;2.50;;;19.30;99.90;;;;;;4976336;28;20194;-76
2022/10/23 05:53:11;;;;;;;9.27;2.92;;;19.30;99.90;;;;;;4973500;28;20191;-77
2022/10/23 05:55:41;;;;;;;5.43;2.15;;;19.40;99.90;;;;;;4973621;28;20216;-75
2022/10/23 05:58:12;;;;;;;7.80;2.88;;;19.40;99.90;;;;;;4975450;28;20316;-73
2022/10/23 06:00:43;;;;;;;6.13;2.53;;;19.40;99.90;;;;;;4972406;28;20226;-75
2022/10/23 06:03:16;;;;;;;11.05;2.67;;;19.40;99.90;;;;;;4958173;28;20197;-74
2022/10/23 06:05:57;;;;;;;9.38;2.72;;;19.40;99.90;;;;;;4976045;28;20208;-73
2022/10/23 06:08:28;;;;;;;9.13;2.65;;;19.40;99.90;;;;;;4975619;28;20203;-75
2022/10/23 06:10:59;;;;;;;7.88;2.75;;;19.40;99.90;;;;;;4973855;28;20676;-76
2022/10/23 06:13:30;;;;;;;13.00;3.13;;;19.40;99.90;;;;;;4974464;28;20275;-77
2022/10/23 06:16:01;;;;;;;10.85;3.08;;;19.50;99.90;;;;;;4974911;28;20216;-73
2022/10/23 06:18:34;;;;;;;10.15;3.10;;;19.50;99.90;;;;;;4976949;28;20555;-76
2022/10/23 06:21:04;;;;;;;10.05;3.25;;;19.50;99.90;;;;;;4973602;28;20203;-77
2022/10/23 06:23:36;;;;;;;11.63;3.47;;;19.60;99.90;;;;;;4973109;28;20219;-72
2022/10/23 06:26:08;;;;;;;18.25;3.88;;;19.60;99.90;;;;;;4973830;28;20684;-75
2022/10/23 06:28:39;;;;;;;7.95;3.78;;;19.50;99.90;;;;;;4973363;28;20189;-76
2022/10/23 06:31:10;;;;;;;14.25;3.55;;;19.50;99.90;;;;;;4974810;28;20188;-76
2022/10/23 06:33:43;;;;;;;9.57;3.40;;;19.50;99.90;;;;;;4973060;28;20560;-78
2022/10/23 06:36:14;;;;;;;13.38;3.35;;;19.40;99.90;;;;;;4972150;28;20212;-76
2022/10/23 06:38:45;;;;;;;10.00;2.97;;;19.40;99.90;;;;;;4973809;28;20240;-76
2022/10/23 06:41:18;;;;;;;10.88;3.40;;;19.50;99.90;;;;;;4975959;28;20279;-74
2022/10/23 06:43:51;;;;;;;10.50;3.33;;;19.50;99.90;;;;;;4975050;28;20192;-76
2022/10/23 06:46:22;;;;;;;22.05;11.65;;;19.50;99.90;;;;;;4973947;28;20188;-77
2022/10/23 06:48:54;;;;;;;16.88;7.43;;;19.50;99.90;;;;;;4975014;28;20189;-76
2022/10/23 06:51:28;;;;;;;11.57;3.60;;;19.50;99.90;;;;;;4975417;28;20633;-74
2022/10/23 06:53:59;;;;;;;10.23;3.55;;;19.50;99.90;;;;;;4974404;28;20196;-76
2022/10/23 06:56:30;;;;;;;10.98;3.60;;;19.40;99.90;;;;;;4973283;28;20232;-74
2022/10/23 06:59:00;;;;;;;11.43;3.38;;;19.40;99.90;;;;;;4974092;28;20197;-73
2022/10/23 07:01:31;;;;;;;10.50;3.45;;;19.50;99.90;;;;;;4974023;28;20196;-76
2022/10/23 07:04:04;;;;;;;9.00;3.10;;;19.50;99.90;;;;;;4973672;28;20251;-73
2022/10/23 07:06:34;;;;;;;11.15;3.28;;;19.50;99.90;;;;;;4974231;28;20196;-74
2022/10/23 07:09:05;;;;;;;9.95;3.20;;;19.40;99.90;;;;;;4970211;28;20195;-75
2022/10/23 07:11:36;;;;;;;7.28;2.63;;;19.40;99.90;;;;;;4967325;28;20546;-75
2022/10/23 07:14:07;;;;;;;8.73;2.92;;;19.40;99.90;;;;;;4965127;28;20289;-75
2022/10/23 07:16:38;;;;;;;11.85;3.08;;;19.40;99.90;;;;;;4965321;28;20216;-75
2022/10/23 07:19:10;;;;;;;10.98;3.20;;;19.30;99.90;;;;;;4968664;28;20723;-73
2022/10/23 07:21:41;;;;;;;8.38;3.03;;;19.20;99.90;;;;;;4971401;28;20202;-74
2022/10/23 07:24:12;;;;;;;11.02;2.75;;;19.20;99.90;;;;;;4975204;28;20192;-76
2022/10/23 07:26:43;;;;;;;10.00;3.40;;;19.10;99.90;;;;;;4974391;28;20207;-73
2022/10/23 07:29:14;;;;;;;8.38;3.30;;;19.10;99.90;;;;;;4974970;28;20743;-73
2022/10/23 07:31:45;;;;;;;7.40;3.03;;;19.10;99.90;;;;;;4971161;28;20207;-73
2022/10/23 07:34:18;;;;;;;9.95;3.20;;;19.00;99.90;;;;;;4967565;28;20211;-73
2022/10/23 07:36:49;;;;;;;13.00;3.20;;;19.00;99.90;;;;;;4972183;28;20222;-73
2022/10/23 07:39:22;;;;;;;11.27;2.90;;;18.90;99.90;;;;;;4972507;28;20671;-74
2022/10/23 07:41:54;;;;;;;7.57;3.00;;;18.90;99.90;;;;;;4970186;28;21406;-75
2022/10/23 07:44:27;;;;;;;9.43;3.33;;;18.90;99.90;;;;;;4974032;28;20251;-75
2022/10/23 07:46:58;;;;;;;9.48;3.45;;;18.80;99.90;;;;;;4979784;28;20208;-76
2022/10/23 07:49:31;;;;;;;10.48;5.72;;;18.80;99.90;;;;;;4970064;28;20196;-74
2022/10/23 07:52:02;;;;;;;11.15;3.75;;;18.80;99.90;;;;;;4970397;28;20205;-73
2022/10/23 07:54:33;;;;;;;8.85;3.25;;;18.70;99.90;;;;;;4976123;28;20204;-75
2022/10/23 07:57:04;;;;;;;12.02;3.35;;;18.70;99.90;;;;;;4967073;28;20315;-74
2022/10/23 07:59:35;;;;;;;19.48;8.13;;;18.70;99.90;;;;;;4970576;28;20196;-75
2022/10/23 08:02:06;;;;;;;10.60;3.33;;;18.70;99.90;;;;;;4972085;28;20326;-74
2022/10/23 08:04:39;;;;;;;12.02;3.10;;;18.70;99.90;;;;;;4970772;28;20202;-73
2022/10/23 08:07:10;;;;;;;6.93;3.10;;;18.70;99.90;;;;;;4977741;28;20204;-73
2022/10/23 08:09:40;;;;;;;10.18;2.78;;;18.70;99.90;;;;;;4972885;28;20744;-76
2022/10/23 08:12:12;;;;;;;10.13;2.75;;;18.60;99.90;;;;;;4966851;28;20202;-75
2022/10/23 08:14:43;;;;;;;12.85;3.00;;;18.60;99.90;;;;;;4976828;28;20725;-75
2022/10/23 08:17:14;;;;;;;7.18;2.88;;;18.60;99.90;;;;;;4970626;28;20291;-74
2022/10/23 08:19:47;;;;;;;12.30;3.13;;;18.60;99.90;;;;;;4973516;28;20204;-78
2022/10/23 08:22:18;;;;;;;31.77;18.58;;;18.60;99.90;;;;;;4971392;28;20652;-76
2022/10/23 08:24:48;;;;;;;10.77;6.25;;;18.60;99.90;;;;;;4971427;28;20675;-76
2022/10/23 08:27:21;;;;;;;10.30;3.50;;;18.50;99.90;;;;;;4974157;28;20204;-75
2022/10/23 08:29:52;;;;;;;9.77;3.00;;;18.50;99.90;;;;;;4970813;28;20281;-75
2022/10/23 08:32:23;;;;;;;8.32;2.83;;;18.60;99.90;;;;;;4968735;28;20206;-76
2022/10/23 08:34:56;;;;;;;8.10;2.70;;;18.60;99.90;;;;;;4972384;28;20208;-77
2022/10/23 08:37:26;;;;;;;7.20;2.58;;;18.60;99.90;;;;;;4975363;28;20233;-74
2022/10/23 08:39:58;;;;;;;8.25;3.38;;;18.50;99.90;;;;;;4970107;28;20207;-72
2022/10/23 08:42:29;;;;;;;9.48;3.08;;;18.50;99.90;;;;;;4972474;28;20284;-76
2022/10/23 08:45:07;;;;;;;5.90;2.83;;;18.50;99.90;;;;;;4969561;28;20195;-74
2022/10/23 08:47:43;;;;;;;12.00;3.45;;;18.50;99.90;;;;;;4969900;28;20207;-76
2022/10/23 08:50:25;;;;;;;9.63;3.58;;;18.60;99.90;;;;;;4972339;28;20202;-76
2022/10/23 08:53:01;;;;;;;9.82;3.53;;;18.50;99.90;;;;;;4970750;28;20192;-75
2022/10/23 08:55:36;;;;;;;11.52;2.92;;;18.60;99.90;;;;;;4970280;28;20222;-78
2022/10/23 08:58:14;;;;;;;8.05;3.08;;;18.50;99.90;;;;;;4972698;28;20246;-77
2022/10/23 09:00:45;;;;;;;11.43;3.10;;;18.60;99.90;;;;;;4971393;28;20295;-75
2022/10/23 09:03:16;;;;;;;9.38;3.17;;;18.60;99.90;;;;;;4970763;28;20208;-76
2022/10/23 09:06:09;;;;;;;6.63;2.75;;;18.60;99.90;;;;;;4972150;28;20610;-76
2022/10/23 09:08:51;;;;;;;6.30;2.60;;;18.60;99.90;;;;;;4974561;28;20200;-76
2022/10/23 09:11:29;;;;;;;5.78;2.60;;;18.60;99.90;;;;;;4969396;28;20648;-73
2022/10/23 09:14:30;;;;;;;7.57;2.85;;;18.60;99.90;;;;;;4973683;28;20204;-76
2022/10/23 09:17:12;;;;;;;11.38;3.25;;;18.60;99.90;;;;;;4970437;28;20683;-76
2022/10/23 09:19:44;;;;;;;7.65;2.92;;;18.60;99.90;;;;;;4969386;28;20215;-76
2022/10/23 09:22:17;;;;;;;9.55;2.95;;;18.60;99.90;;;;;;4971294;28;20271;-77
2022/10/23 09:24:47;;;;;;;9.30;2.60;;;18.60;99.90;;;;;;4972352;28;20616;-77
2022/10/23 09:27:19;;;;;;;9.25;2.90;;;18.60;99.90;;;;;;4975306;28;20747;-76
2022/10/23 09:29:54;;;;;;;8.30;2.83;;;18.60;99.90;;;;;;4973066;28;20280;-78
2022/10/23 09:32:36;;;;;;;7.75;2.70;;;18.60;99.90;;;;;;4971683;28;20206;-76
2022/10/23 09:35:08;;;;;;;8.07;2.25;;;18.70;99.90;;;;;;4971858;28;20207;-74
2022/10/23 09:37:52;;;;;;;11.30;2.38;;;18.60;99.90;;;;;;4969993;28;20242;-76
2022/10/23 09:40:32;;;;;;;6.78;2.58;;;18.70;99.90;;;;;;4976132;28;20211;-77
2022/10/23 09:43:17;;;;;;;9.20;2.40;;;18.60;99.90;;;;;;4975499;28;20200;-77
2022/10/23 09:46:00;;;;;;;8.63;2.53;;;18.60;99.90;;;;;;4973678;28;20292;-76
2022/10/23 09:48:32;;;;;;;9.70;3.05;;;18.60;99.90;;;;;;4971250;28;20192;-78
2022/10/23 09:51:03;;;;;;;9.73;2.55;;;18.60;99.90;;;;;;4968459;28;20239;-77
2022/10/23 09:53:39;;;;;;;9.35;2.50;;;18.60;99.90;;;;;;4970707;28;20201;-73
2022/10/23 09:56:26;;;;;;;10.90;3.00;;;18.60;99.90;;;;;;4969235;28;20228;-72
2022/10/23 09:59:00;;;;;;;10.20;3.20;;;18.60;99.90;;;;;;4974701;28;20204;-78
2022/10/23 10:01:34;;;;;;;7.57;2.72;;;18.50;99.90;;;;;;4970783;28;20206;-77
2022/10/23 10:04:05;;;;;;;9.18;3.28;;;18.50;99.90;;;;;;4970885;28;20210;-77
2022/10/23 10:06:36;;;;;;;5.93;2.50;;;18.60;99.90;;;;;;4975365;28;20203;-78
2022/10/23 10:09:14;;;;;;;7.75;2.33;;;18.50;99.90;;;;;;4976644;28;20606;-77
2022/10/23 10:11:49;;;;;;;8.65;2.58;;;18.60;99.90;;;;;;4978772;28;20208;-76
2022/10/23 10:14:47;;;;;;;8.30;2.40;;;18.60;99.90;;;;;;4976879;28;20192;-79
2022/10/23 10:17:28;;;;;;;7.93;2.70;;;18.60;99.90;;;;;;4970199;28;20226;-77
2022/10/23 10:20:14;;;;;;;7.35;2.38;;;18.60;99.90;;;;;;4975262;28;20262;-78
2022/10/23 10:22:54;;;;;;;8.77;2.50;;;18.60;99.90;;;;;;4976735;28;20199;-74
2022/10/23 10:25:32;;;;;;;8.05;2.55;;;18.60;99.90;;;;;;4976574;28;20188;-77
2022/10/23 10:28:13;;;;;;;6.43;1.90;;;18.60;99.90;;;;;;4972664;28;20568;-73
2022/10/23 10:30:52;;;;;;;10.00;2.20;;;18.60;99.90;;;;;;4976047;28;20209;-78
2022/10/23 10:33:30;;;;;;;8.48;2.35;;;18.70;99.90;;;;;;4974702;28;20207;-77
2022/10/23 10:36:05;;;;;;;8.57;2.28;;;18.70;99.90;;;;;;4974511;28;20248;-77
2022/10/23 10:38:48;;;;;;;9.88;2.13;;;18.60;99.90;;;;;;4977085;28;20232;-75
2022/10/23 10:41:43;;;;;;;10.23;2.28;;;18.60;99.90;;;;;;4972246;28;20196;-76
2022/10/23 10:44:33;;;;;;;6.53;2.35;;;18.60;99.90;;;;;;4972882;28;20185;-78
2022/10/23 10:47:14;;;;;;;11.30;2.22;;;18.60;99.90;;;;;;4973879;28;20204;-76
2022/10/23 10:49:56;;;;;;;5.38;2.13;;;18.60;99.90;;;;;;4973142;28;20212;-76
2022/10/23 10:52:34;;;;;;;7.20;2.17;;;18.60;99.90;;;;;;4975486;28;20200;-75
2022/10/23 10:55:20;;;;;;;5.25;2.22;;;18.70;99.90;;;;;;4972636;28;20329;-78
2022/10/23 10:57:57;;;;;;;7.68;2.08;;;18.60;99.90;;;;;;4973749;28;20236;-77
2022/10/23 11:00:30;;;;;;;6.95;1.95;;;18.60;99.90;;;;;;4972755;28;20196;-73
2022/10/23 11:03:08;;;;;;;7.55;2.15;;;18.60;99.90;;;;;;4973337;28;20197;-74
2022/10/23 11:05:44;;;;;;;8.40;2.40;;;18.60;99.90;;;;;;4971987;28;20207;-78
2022/10/23 11:08:20;;;;;;;5.20;2.00;;;18.60;99.90;;;;;;4973337;28;20652;-78
2022/10/23 11:10:54;;;;;;;8.18;1.98;;;18.60;99.90;;;;;;4974914;28;20196;-77
2022/10/23 11:13:30;;;;;;;5.18;1.83;;;18.60;99.90;;;;;;4982241;28;20647;-77
2022/10/23 11:16:06;;;;;;;7.75;1.80;;;18.60;99.90;;;;;;4974582;28;20714;-76
2022/10/23 11:18:39;;;;;;;6.47;1.95;;;18.60;99.90;;;;;;4970694;28;20621;-78
2022/10/23 11:21:24;;;;;;;7.75;1.92;;;18.60;99.90;;;;;;4971262;28;20202;-78
2022/10/23 11:24:40;;;;;;;5.95;1.73;;;18.60;99.90;;;;;;4972867;28;20208;-78
2022/10/23 11:27:27;;;;;;;5.88;1.80;;;18.60;99.90;;;;;;4970739;28;20291;-77
2022/10/23 11:30:14;;;;;;;4.75;1.75;;;18.50;99.90;;;;;;4970927;28;20204;-77
2022/10/23 11:33:27;;;;;;;4.85;1.80;;;18.60;99.90;;;;;;4970554;28;20196;-77
2022/10/23 11:36:07;;;;;;;7.15;2.08;;;18.60;99.90;;;;;;4966423;28;20200;-78
2022/10/23 11:38:41;;;;;;;7.15;1.90;;;18.60;99.90;;;;;;4973006;28;20627;-78
2022/10/23 11:41:22;;;;;;;6.43;1.80;;;18.50;99.90;;;;;;4975805;28;20660;-78
2022/10/23 11:43:55;;;;;;;5.57;2.10;;;18.60;99.90;;;;;;4974105;28;20189;-78
2022/10/23 11:46:37;;;;;;;5.72;1.90;;;18.60;99.90;;;;;;4973787;28;20196;-78
2022/10/23 11:49:20;;;;;;;7.70;1.90;;;18.60;99.90;;;;;;4972638;28;20208;-74
2022/10/23 11:52:02;;;;;;;7.25;1.98;;;18.60;99.90;;;;;;4973567;28;20229;-77
2022/10/23 11:54:33;;;;;;;7.72;2.13;;;18.60;99.90;;;;;;4969885;28;20203;-77
2022/10/23 11:57:16;;;;;;;9.68;2.20;;;18.60;99.90;;;;;;4973936;28;20595;-78
2022/10/23 11:59:55;;;;;;;8.18;2.10;;;18.60;99.90;;;;;;4972012;28;20200;-77
2022/10/23 12:02:32;;;;;;;9.13;2.28;;;18.60;99.90;;;;;;4969608;28;20188;-78
2022/10/23 12:05:07;;;;;;;10.40;1.85;;;18.60;99.90;;;;;;4973272;28;20872;-77
2022/10/23 12:07:40;;;;;;;7.45;2.13;;;18.60;99.90;;;;;;4971659;28;20201;-77
2022/10/23 12:10:24;;;;;;;10.48;2.20;;;18.60;99.90;;;;;;4972703;28;20654;-77
2022/10/23 12:13:00;;;;;;;8.57;1.90;;;18.60;99.90;;;;;;4973747;28;20221;-77
2022/10/23 12:15:31;;;;;;;10.45;2.15;;;18.60;99.90;;;;;;4973930;28;20184;-76
2022/10/23 12:18:18;;;;;;;10.85;2.28;;;18.60;99.90;;;;;;4971054;28;20220;-78
2022/10/23 12:20:53;;;;;;;8.40;2.30;;;18.60;99.90;;;;;;4973462;28;20199;-77
2022/10/23 12:23:49;;;;;;;8.82;2.25;;;18.60;99.90;;;;;;4974340;28;20663;-73
2022/10/23 12:26:53;;;;;;;7.63;2.15;;;18.60;99.90;;;;;;4973927;28;20192;-73
2022/10/23 12:29:39;;;;;;;8.48;2.15;;;18.60;99.90;;;;;;4973540;28;20829;-73
2022/10/23 12:32:26;;;;;;;10.57;1.92;;;18.70;99.90;;;;;;4973861;28;20651;-76
2022/10/23 12:35:14;;;;;;;7.53;2.10;;;18.70;99.90;;;;;;4974458;28;20215;-75
2022/10/23 12:37:57;;;;;;;7.75;2.20;;;18.70;99.90;;;;;;4977000;28;20245;-76
2022/10/23 12:40:29;;;;;;;5.80;2.00;;;18.70;99.90;;;;;;4978730;28;20283;-76
2022/10/23 12:43:01;;;;;;;12.77;2.25;;;18.70;99.90;;;;;;4974177;28;20682;-76
2022/10/23 12:45:34;;;;;;;12.15;2.33;;;18.70;99.90;;;;;;4970527;28;20197;-72
2022/10/23 12:48:05;;;;;;;9.60;2.22;;;18.70;99.90;;;;;;4976832;28;20291;-77
2022/10/23 12:50:38;;;;;;;10.15;2.00;;;18.70;99.90;;;;;;4966532;28;20200;-76
2022/10/23 12:53:18;;;;;;;8.63;1.88;;;18.70;99.90;;;;;;4974469;28;20224;-73
2022/10/23 12:55:53;;;;;;;10.35;2.08;;;18.70;99.90;;;;;;4971662;28;20557;-75
2022/10/23 12:58:26;;;;;;;11.13;2.08;;;18.70;99.90;;;;;;4980116;28;20567;-75
2022/10/23 13:00:58;;;;;;;8.23;1.85;;;18.80;99.90;;;;;;4972685;28;20651;-77
2022/10/23 13:03:31;;;;;;;9.93;1.80;;;18.80;99.90;;;;;;4974587;28;20200;-73
2022/10/23 13:06:05;;;;;;;13.85;2.53;;;18.80;99.90;;;;;;4974063;28;20200;-76
2022/10/23 13:08:40;;;;;;;11.60;2.10;;;18.80;99.90;;;;;;4972973;28;20619;-77
2022/10/23 13:11:15;;;;;;;9.75;1.95;;;18.80;99.90;;;;;;4972841;28;20208;-77
2022/10/23 13:13:47;;;;;;;11.65;1.90;;;18.80;99.90;;;;;;4971856;28;20350;-76
2022/10/23 13:16:19;;;;;;;9.25;1.73;;;18.90;99.90;;;;;;4977775;28;20200;-76
2022/10/23 13:18:50;;;;;;;10.35;1.75;;;18.80;99.90;;;;;;4966874;28;20192;-76
2022/10/23 13:21:24;;;;;;;11.20;2.00;;;18.90;99.90;;;;;;4963894;28;20201;-76
2022/10/23 13:23:55;;;;;;;11.48;1.85;;;18.90;99.90;;;;;;4974612;28;20218;-77